Time;durP1;ratioP1;P1;durP2;ratioP2;P2;SDS_P1;SDS_P2;PMS_P1;PMS_P2;Temp;Humidity;BMP_temperature;BMP_pressure;BME280_temperature;BME280_humidity;BME280_pressure;Samples;Min_cycle;Max_cycle;Signal;HPM_P1;HPM_P2
2022/09/30 00:00:59;;;;;;;3.60;2.30;;;7.50;99.90;;;;;;5072414;28;20461;-84
2022/09/30 00:03:25;;;;;;;2.43;2.03;;;7.60;99.90;;;;;;5072102;28;20261;-85
2022/09/30 00:05:59;;;;;;;5.87;3.13;;;7.50;99.90;;;;;;5054337;28;20198;-87
2022/09/30 00:08:25;;;;;;;4.23;2.10;;;7.50;99.90;;;;;;5072300;28;20236;-85
2022/09/30 00:11:05;;;;;;;3.00;1.77;;;7.50;99.90;;;;;;5054330;28;20983;-86
2022/09/30 00:13:33;;;;;;;3.70;3.03;;;7.40;99.90;;;;;;5072354;28;20425;-87
2022/09/30 00:15:59;;;;;;;3.37;2.33;;;7.40;99.90;;;;;;5072197;28;20422;-86
2022/09/30 00:18:26;;;;;;;3.87;2.40;;;7.40;99.90;;;;;;5072058;28;20418;-86
2022/09/30 00:20:52;;;;;;;3.40;1.80;;;7.40;99.90;;;;;;5054177;28;20579;-86
2022/09/30 00:23:18;;;;;;;8.27;2.27;;;7.40;99.90;;;;;;5072232;28;20499;-86
2022/09/30 00:25:43;;;;;;;3.70;2.57;;;7.40;99.90;;;;;;5072262;28;20197;-86
2022/09/30 00:28:09;;;;;;;5.00;2.53;;;7.50;99.90;;;;;;5073203;28;20470;-86
2022/09/30 00:30:34;;;;;;;3.40;2.60;;;7.50;99.90;;;;;;5075945;28;20178;-88
2022/09/30 00:33:00;;;;;;;3.33;2.20;;;7.70;99.90;;;;;;5075441;28;20544;-87
2022/09/30 00:35:26;;;;;;;4.07;1.80;;;7.70;99.90;;;;;;5076320;28;20222;-87
2022/09/30 00:37:51;;;;;;;5.40;3.17;;;7.80;99.90;;;;;;5058287;28;20186;-87
2022/09/30 00:40:23;;;;;;;4.03;2.27;;;7.90;99.90;;;;;;5058770;28;20564;-87
2022/09/30 00:42:48;;;;;;;4.83;2.50;;;8.00;99.90;;;;;;5076245;28;20252;-90
2022/09/30 00:45:16;;;;;;;5.20;3.10;;;8.00;99.90;;;;;;5058426;28;20510;-86
2022/09/30 00:47:56;;;;;;;3.40;2.60;;;8.00;99.90;;;;;;5058002;28;20591;-88
2022/09/30 00:50:34;;;;;;;4.93;2.83;;;7.90;99.90;;;;;;5076143;28;20431;-88
2022/09/30 00:53:17;;;;;;;5.07;2.47;;;7.80;99.90;;;;;;5076169;28;20453;-87
2022/09/30 00:56:03;;;;;;;4.90;3.33;;;7.70;99.90;;;;;;5089476;28;20976;-88
2022/09/30 00:58:43;;;;;;;5.57;2.60;;;7.60;99.90;;;;;;5095853;28;20409;-90
2022/09/30 01:01:13;;;;;;;3.57;2.87;;;7.50;99.90;;;;;;5095085;28;20418;-84
2022/09/30 01:03:44;;;;;;;5.33;3.07;;;7.60;99.90;;;;;;5095402;28;20407;-88
2022/09/30 01:06:10;;;;;;;5.17;2.87;;;7.70;99.90;;;;;;5077283;28;20476;-85
2022/09/30 01:08:38;;;;;;;6.10;2.50;;;7.70;99.90;;;;;;5077333;28;20448;-85
2022/09/30 01:11:06;;;;;;;4.30;3.40;;;7.70;99.90;;;;;;5077410;28;20788;-85
2022/09/30 01:13:33;;;;;;;5.07;3.80;;;7.60;99.90;;;;;;5095351;28;20416;-86
2022/09/30 01:16:14;;;;;;;2.83;2.17;;;7.60;99.90;;;;;;5076686;28;20984;-85
2022/09/30 01:19:18;;;;;;;5.70;3.47;;;7.50;99.90;;;;;;5095217;28;20412;-87
2022/09/30 01:21:58;;;;;;;3.70;2.20;;;7.30;99.90;;;;;;5076877;28;20475;-87
2022/09/30 01:24:46;;;;;;;4.43;2.63;;;7.20;99.90;;;;;;5095171;28;20415;-87
2022/09/30 01:27:56;;;;;;;5.47;3.10;;;7.40;99.90;;;;;;5094929;28;20474;-87
2022/09/30 01:30:58;;;;;;;5.37;3.70;;;7.50;99.90;;;;;;5073762;28;20860;-86
2022/09/30 01:33:54;;;;;;;5.43;4.27;;;7.40;99.90;;;;;;5076636;28;20505;-86
2022/09/30 01:36:35;;;;;;;4.83;3.33;;;7.50;99.90;;;;;;5076585;28;20407;-87
2022/09/30 01:39:10;;;;;;;5.03;3.60;;;7.30;99.90;;;;;;5094557;28;20433;-87
2022/09/30 01:42:14;;;;;;;4.80;2.90;;;7.10;99.90;;;;;;5094757;28;20441;-86
2022/09/30 01:45:06;;;;;;;4.40;3.10;;;7.00;99.90;;;;;;5076481;28;20513;-86
2022/09/30 01:47:42;;;;;;;4.93;3.27;;;7.10;99.90;;;;;;5075986;28;20474;-87
2022/09/30 01:50:12;;;;;;;5.30;3.23;;;7.00;99.90;;;;;;5094498;28;20428;-86
2022/09/30 01:52:57;;;;;;;5.43;3.17;;;7.00;99.90;;;;;;5076261;28;20429;-86
2022/09/30 01:55:46;;;;;;;5.43;4.07;;;7.00;99.90;;;;;;5094486;28;20759;-87
2022/09/30 01:58:29;;;;;;;5.63;3.37;;;6.90;99.90;;;;;;5093794;28;20454;-87
2022/09/30 02:00:59;;;;;;;5.23;2.90;;;6.90;99.90;;;;;;5075820;28;20917;-86
2022/09/30 02:03:32;;;;;;;5.00;3.53;;;6.90;99.90;;;;;;5094346;28;20452;-87
2022/09/30 02:06:06;;;;;;;4.57;3.40;;;6.90;99.90;;;;;;5094259;28;20488;-86
2022/09/30 02:08:40;;;;;;;6.30;4.03;;;7.20;99.90;;;;;;5075993;28;20419;-86
2022/09/30 02:11:24;;;;;;;6.50;3.40;;;7.40;99.90;;;;;;5094241;28;20418;-86
2022/09/30 02:13:57;;;;;;;4.97;3.97;;;7.30;99.90;;;;;;5076002;28;20514;-86
2022/09/30 02:16:31;;;;;;;5.80;3.73;;;7.30;99.90;;;;;;5093852;28;20407;-86
2022/09/30 02:19:08;;;;;;;4.80;3.70;;;7.30;99.90;;;;;;5094114;28;20467;-87
2022/09/30 02:21:43;;;;;;;4.50;3.30;;;7.30;99.90;;;;;;5094071;28;20403;-86
2022/09/30 02:24:15;;;;;;;6.60;4.53;;;7.40;99.90;;;;;;5075175;28;20414;-87
2022/09/30 02:26:42;;;;;;;5.20;4.17;;;7.40;99.90;;;;;;5089945;28;20463;-87
2022/09/30 02:29:16;;;;;;;6.40;3.80;;;7.50;99.90;;;;;;5084128;28;20504;-87
2022/09/30 02:31:45;;;;;;;4.10;3.33;;;7.60;99.90;;;;;;5080759;28;20460;-88
2022/09/30 02:34:16;;;;;;;4.40;3.63;;;7.70;99.90;;;;;;5092541;28;20453;-86
2022/09/30 02:36:53;;;;;;;6.13;3.03;;;7.70;99.90;;;;;;5091914;28;20412;-86
2022/09/30 02:39:30;;;;;;;4.57;3.60;;;7.80;99.90;;;;;;5075347;28;20468;-87
2022/09/30 02:42:03;;;;;;;5.53;3.23;;;7.80;99.90;;;;;;5092569;28;20457;-88
2022/09/30 02:44:30;;;;;;;4.37;3.30;;;7.80;99.90;;;;;;5093653;28;20401;-86
2022/09/30 02:47:10;;;;;;;8.17;4.43;;;7.80;99.90;;;;;;5074886;28;20484;-87
2022/09/30 02:49:42;;;;;;;4.80;3.10;;;7.90;99.90;;;;;;5093587;28;20408;-87
2022/09/30 02:52:28;;;;;;;6.53;4.40;;;7.80;99.90;;;;;;5092860;28;20419;-87
2022/09/30 02:55:25;;;;;;;4.67;3.63;;;7.90;99.90;;;;;;5075356;28;20789;-87
2022/09/30 02:58:10;;;;;;;7.03;3.70;;;7.90;99.90;;;;;;5093599;28;20417;-86
2022/09/30 03:00:36;;;;;;;4.53;3.37;;;7.90;99.90;;;;;;5074999;28;20422;-86
2022/09/30 03:03:17;;;;;;;4.97;4.10;;;7.90;99.90;;;;;;5093306;28;20884;-87
2022/09/30 03:05:43;;;;;;;5.07;3.73;;;7.90;99.90;;;;;;5073007;28;20864;-87
2022/09/30 03:08:09;;;;;;;4.47;2.20;;;7.90;99.90;;;;;;5073142;28;20420;-87
2022/09/30 03:10:35;;;;;;;6.30;4.00;;;7.90;99.90;;;;;;5055096;28;20423;-87
2022/09/30 03:13:27;;;;;;;4.10;2.70;;;7.90;99.90;;;;;;5055036;28;20955;-87
2022/09/30 03:16:03;;;;;;;4.20;2.90;;;7.90;99.90;;;;;;5054772;28;20287;-87
2022/09/30 03:18:48;;;;;;;4.37;3.60;;;7.90;99.90;;;;;;5073002;28;20433;-87
2022/09/30 03:21:31;;;;;;;5.70;3.43;;;7.90;99.90;;;;;;5072894;28;20411;-86
2022/09/30 03:24:02;;;;;;;5.13;4.00;;;7.90;99.90;;;;;;5072842;28;20406;-86
2022/09/30 03:26:52;;;;;;;5.50;4.03;;;7.90;99.90;;;;;;5072749;28;20477;-86
2022/09/30 03:29:42;;;;;;;6.13;3.63;;;7.90;99.90;;;;;;5072620;28;20556;-85
2022/09/30 03:32:28;;;;;;;6.47;3.80;;;7.80;99.90;;;;;;5072463;28;20411;-87
2022/09/30 03:35:02;;;;;;;5.97;3.67;;;7.80;99.90;;;;;;5072813;28;20499;-86
2022/09/30 03:37:44;;;;;;;6.77;4.60;;;7.80;99.90;;;;;;5072770;28;20504;-86
2022/09/30 03:40:32;;;;;;;7.53;4.70;;;7.80;99.90;;;;;;5072842;28;20538;-86
2022/09/30 03:43:07;;;;;;;6.70;3.97;;;7.80;99.90;;;;;;5072577;28;20418;-86
2022/09/30 03:45:38;;;;;;;5.53;3.67;;;7.80;99.90;;;;;;5072176;28;20418;-88
2022/09/30 03:48:07;;;;;;;6.50;4.40;;;7.80;99.90;;;;;;5054614;28;20422;-85
2022/09/30 03:50:35;;;;;;;5.43;4.90;;;7.90;99.90;;;;;;5072526;28;20854;-86
2022/09/30 03:53:03;;;;;;;7.47;4.97;;;7.90;99.90;;;;;;5054547;28;20416;-86
2022/09/30 03:55:29;;;;;;;8.60;4.90;;;7.80;99.90;;;;;;5054434;28;20421;-87
2022/09/30 03:57:56;;;;;;;5.27;3.93;;;7.80;99.90;;;;;;5072424;28;20778;-86
2022/09/30 04:00:22;;;;;;;6.40;5.20;;;7.80;99.90;;;;;;5072341;28;20424;-88
2022/09/30 04:02:47;;;;;;;5.13;4.13;;;7.80;99.90;;;;;;5074678;28;20923;-87
2022/09/30 04:05:12;;;;;;;4.33;3.60;;;7.70;99.90;;;;;;5058279;28;20179;-87
2022/09/30 04:07:38;;;;;;;5.90;4.13;;;7.70;99.90;;;;;;5058294;28;20205;-87
2022/09/30 04:10:04;;;;;;;5.80;3.73;;;7.70;99.90;;;;;;5058306;28;20207;-87
2022/09/30 04:12:29;;;;;;;5.23;3.87;;;7.60;99.90;;;;;;5058285;28;20541;-87
2022/09/30 04:14:55;;;;;;;5.40;4.13;;;7.40;99.90;;;;;;5058171;28;20419;-87
2022/09/30 04:17:21;;;;;;;4.13;3.40;;;7.40;99.90;;;;;;5057852;28;20211;-87
2022/09/30 04:19:46;;;;;;;7.23;3.47;;;7.30;99.90;;;;;;5075993;28;20186;-87
2022/09/30 04:22:12;;;;;;;7.80;4.30;;;7.20;99.90;;;;;;5058068;28;20424;-87
2022/09/30 04:24:40;;;;;;;5.07;3.67;;;7.10;99.90;;;;;;5075912;28;20183;-87
2022/09/30 04:27:11;;;;;;;4.80;2.93;;;7.00;99.90;;;;;;5058076;28;20215;-87
2022/09/30 04:29:36;;;;;;;3.77;2.97;;;7.00;99.90;;;;;;5075806;28;20448;-87
2022/09/30 04:32:02;;;;;;;4.40;3.17;;;6.90;99.90;;;;;;5075608;28;20939;-88
2022/09/30 04:34:27;;;;;;;4.77;3.43;;;6.90;99.90;;;;;;5075723;28;20380;-87
2022/09/30 04:36:53;;;;;;;4.40;3.37;;;6.90;99.90;;;;;;5057824;28;20170;-88
2022/09/30 04:39:18;;;;;;;2.87;2.57;;;7.00;99.90;;;;;;5075833;28;20167;-86
2022/09/30 04:41:43;;;;;;;3.77;3.00;;;7.00;99.90;;;;;;5057735;28;20243;-87
2022/09/30 04:44:09;;;;;;;4.53;2.63;;;7.00;99.90;;;;;;5057693;28;20680;-87
2022/09/30 04:46:35;;;;;;;5.03;3.47;;;7.00;99.90;;;;;;5075052;28;20291;-88
2022/09/30 04:49:02;;;;;;;5.00;3.53;;;6.90;99.90;;;;;;5057595;28;20174;-87
2022/09/30 04:51:28;;;;;;;4.60;2.90;;;6.80;99.90;;;;;;5058018;28;20428;-84
2022/09/30 04:53:54;;;;;;;6.43;3.43;;;6.70;99.90;;;;;;5075379;28;20409;-82
2022/09/30 04:56:20;;;;;;;4.27;2.80;;;6.80;99.90;;;;;;5075320;28;20470;-83
2022/09/30 04:58:46;;;;;;;5.60;3.10;;;6.70;99.90;;;;;;5057451;28;20175;-84
2022/09/30 05:01:14;;;;;;;6.80;5.00;;;6.60;99.90;;;;;;5074925;28;20209;-83
2022/09/30 05:03:40;;;;;;;5.87;4.40;;;6.80;99.90;;;;;;5075014;28;20413;-83
2022/09/30 05:06:06;;;;;;;6.50;4.37;;;6.90;99.90;;;;;;5074974;28;20453;-83
2022/09/30 05:08:32;;;;;;;5.90;4.03;;;7.10;99.90;;;;;;5075127;28;20416;-84
2022/09/30 05:11:09;;;;;;;6.00;4.50;;;7.00;99.90;;;;;;5075053;28;20411;-83
2022/09/30 05:13:37;;;;;;;4.33;3.80;;;7.00;99.90;;;;;;5074434;28;20493;-83
2022/09/30 05:16:03;;;;;;;6.40;4.30;;;7.00;99.90;;;;;;5074530;28;20430;-83
2022/09/30 05:18:29;;;;;;;4.93;4.43;;;7.00;99.90;;;;;;5074796;28;20498;-83
2022/09/30 05:20:56;;;;;;;6.63;4.30;;;7.00;99.90;;;;;;5074793;28;20509;-84
2022/09/30 05:23:23;;;;;;;8.83;6.23;;;6.80;99.90;;;;;;5074902;28;20539;-83
2022/09/30 05:25:50;;;;;;;8.83;5.50;;;6.90;99.90;;;;;;5075109;28;20464;-83
2022/09/30 05:28:15;;;;;;;6.40;4.73;;;6.90;99.90;;;;;;5074655;28;20549;-82
2022/09/30 05:30:42;;;;;;;6.70;5.17;;;6.90;99.90;;;;;;5074412;28;20827;-83
2022/09/30 05:33:08;;;;;;;4.13;3.47;;;7.00;99.90;;;;;;5074656;28;20329;-83
2022/09/30 05:35:34;;;;;;;5.53;4.60;;;7.10;99.90;;;;;;5074639;28;20790;-83
2022/09/30 05:38:03;;;;;;;5.53;3.53;;;7.10;99.90;;;;;;5074521;28;20429;-83
2022/09/30 05:40:29;;;;;;;5.77;3.63;;;7.10;99.90;;;;;;5056509;28;20422;-83
2022/09/30 05:42:59;;;;;;;8.07;3.97;;;7.10;99.90;;;;;;5056345;28;20415;-83
2022/09/30 05:45:25;;;;;;;7.23;4.40;;;7.00;99.90;;;;;;5073910;28;20468;-83
2022/09/30 05:47:54;;;;;;;6.00;4.00;;;6.90;99.90;;;;;;5074325;28;20419;-82
2022/09/30 05:50:21;;;;;;;4.97;3.80;;;6.80;99.90;;;;;;5074304;28;20848;-82
2022/09/30 05:52:48;;;;;;;3.93;3.50;;;6.80;99.90;;;;;;5073925;28;20423;-83
2022/09/30 05:55:17;;;;;;;4.70;3.63;;;6.80;99.90;;;;;;5074130;28;20782;-83
2022/09/30 05:57:46;;;;;;;5.07;3.50;;;6.70;99.90;;;;;;5074094;28;20474;-84
2022/09/30 06:00:12;;;;;;;7.37;4.10;;;6.90;99.90;;;;;;5073488;28;20474;-85
2022/09/30 06:02:40;;;;;;;4.67;4.13;;;7.00;99.90;;;;;;5074175;28;20411;-85
2022/09/30 06:05:06;;;;;;;6.73;4.70;;;7.10;99.90;;;;;;5056066;28;20279;-83
2022/09/30 06:07:33;;;;;;;7.63;5.10;;;7.20;99.90;;;;;;5056124;28;20487;-86
2022/09/30 06:10:01;;;;;;;6.50;5.50;;;7.20;99.90;;;;;;5056191;28;20412;-84
2022/09/30 06:12:27;;;;;;;5.73;5.00;;;7.30;99.90;;;;;;5073819;28;20517;-84
2022/09/30 06:14:56;;;;;;;5.20;4.23;;;7.40;99.90;;;;;;5055840;28;20505;-84
2022/09/30 06:17:22;;;;;;;6.47;5.20;;;7.40;99.90;;;;;;5073312;28;20172;-85
2022/09/30 06:19:48;;;;;;;8.50;4.90;;;7.50;99.90;;;;;;5073461;28;20429;-86
2022/09/30 06:22:15;;;;;;;6.63;4.87;;;7.60;99.90;;;;;;5073588;28;20511;-84
2022/09/30 06:24:41;;;;;;;7.60;5.80;;;7.70;99.90;;;;;;5073396;28;20785;-84
2022/09/30 06:27:07;;;;;;;6.90;5.30;;;7.80;99.90;;;;;;5072806;28;20907;-85
2022/09/30 06:29:32;;;;;;;8.97;6.57;;;7.90;99.90;;;;;;5073306;28;20479;-84
2022/09/30 06:31:58;;;;;;;9.47;7.17;;;9.00;99.90;;;;;;5055137;28;20179;-84
2022/09/30 06:34:26;;;;;;;9.03;7.30;;;10.60;99.90;;;;;;5055481;28;20175;-83
2022/09/30 06:36:54;;;;;;;9.13;7.70;;;11.40;99.90;;;;;;5073309;28;20255;-84
2022/09/30 06:39:20;;;;;;;9.53;7.90;;;12.80;99.90;;;;;;5073341;28;20409;-85
2022/09/30 06:41:45;;;;;;;8.50;7.57;;;13.90;1.00;;;;;;5073223;28;20409;-85
2022/09/30 06:44:11;;;;;;;7.20;5.93;;;13.20;1.00;;;;;;5073073;28;20173;-84
2022/09/30 06:46:37;;;;;;;5.70;4.10;;;11.60;99.90;;;;;;5072826;28;20247;-85
2022/09/30 06:49:04;;;;;;;5.10;4.40;;;10.70;99.90;;;;;;5073117;28;20254;-85
2022/09/30 06:51:35;;;;;;;5.83;4.93;;;10.60;99.90;;;;;;5074655;28;20411;-91
2022/09/30 06:54:00;;;;;;;7.73;5.43;;;11.60;99.90;;;;;;5087611;28;20425;-89
2022/09/30 06:56:26;;;;;;;5.53;4.60;;;13.70;1.00;;;;;;5085667;28;20424;-89
2022/09/30 06:58:52;;;;;;;6.93;5.43;;;14.40;1.00;;;;;;5077521;28;20637;-88
2022/09/30 07:01:19;;;;;;;4.27;3.80;;;14.90;99.90;;;;;;5072383;28;20175;-88
2022/09/30 07:03:45;;;;;;;4.07;3.20;;;15.40;24.80;;;;;;5056018;28;20167;-91
2022/09/30 07:06:13;;;;;;;4.10;3.27;;;16.20;1.00;;;;;;5072221;28;20471;-86
2022/09/30 07:08:39;;;;;;;4.10;3.27;;;16.70;1.00;;;;;;5054555;28;20182;-87
2022/09/30 07:11:11;;;;;;;3.27;2.80;;;16.50;32.10;;;;;;5054239;28;20815;-86
2022/09/30 07:13:37;;;;;;;3.60;3.20;;;17.00;1.00;;;;;;5073077;28;20420;-89
2022/09/30 07:16:02;;;;;;;3.70;3.10;;;16.50;1.00;;;;;;5056035;28;20779;-92
2022/09/30 07:18:28;;;;;;;4.10;3.63;;;16.60;1.00;;;;;;5055668;28;20175;-90
2022/09/30 07:20:55;;;;;;;4.80;3.33;;;16.70;1.00;;;;;;5055445;28;20235;-85
2022/09/30 07:23:21;;;;;;;3.47;3.17;;;17.20;99.90;;;;;;5054738;28;20172;-86
2022/09/30 07:25:56;;;;;;;3.70;2.90;;;16.90;1.00;;;;;;5072750;28;20510;-87
2022/09/30 07:28:26;;;;;;;7.00;3.60;;;16.80;1.00;;;;;;5072430;28;20493;-93
2022/09/30 07:30:55;;;;;;;4.30;2.77;;;17.60;99.90;;;;;;5072285;28;20454;-85
2022/09/30 07:33:21;;;;;;;4.00;3.40;;;18.30;99.90;;;;;;5081120;28;20397;-86
2022/09/30 07:35:54;;;;;;;3.73;2.80;;;18.40;99.90;;;;;;5097471;28;20430;-88
2022/09/30 07:38:21;;;;;;;4.70;3.27;;;17.80;99.90;;;;;;5100938;28;20388;-91
2022/09/30 07:41:17;;;;;;;3.47;2.93;;;18.00;99.90;;;;;;5101407;28;20402;-89
2022/09/30 07:43:44;;;;;;;5.10;3.57;;;18.10;99.90;;;;;;5088555;28;20436;-85
2022/09/30 07:46:13;;;;;;;4.23;3.30;;;19.80;99.90;;;;;;5077062;28;20815;-89
2022/09/30 07:48:45;;;;;;;2.67;2.47;;;20.30;99.90;;;;;;5076265;28;20429;-86
2022/09/30 07:51:14;;;;;;;4.00;3.20;;;20.70;99.90;;;;;;5076059;28;20493;-87
2022/09/30 07:53:45;;;;;;;4.57;2.87;;;20.50;99.90;;;;;;5076067;28;20403;-89
2022/09/30 07:56:12;;;;;;;3.40;2.60;;;20.80;99.90;;;;;;5077133;28;20407;-85
2022/09/30 07:58:38;;;;;;;3.73;2.83;;;20.40;99.90;;;;;;5075983;28;20423;-86
2022/09/30 08:01:05;;;;;;;2.70;2.43;;;20.20;99.90;;;;;;5076614;28;20438;-83
2022/09/30 08:03:32;;;;;;;3.97;2.60;;;20.20;99.90;;;;;;5057779;28;20466;-87
2022/09/30 08:06:04;;;;;;;2.20;1.93;;;20.70;99.90;;;;;;5077407;28;20958;-90
2022/09/30 08:08:29;;;;;;;4.77;4.47;;;21.40;99.90;;;;;;5078791;28;20391;-93
2022/09/30 08:10:58;;;;;;;5.47;4.47;;;21.20;99.90;;;;;;5079176;28;20967;-93
2022/09/30 08:13:24;;;;;;;4.83;4.53;;;21.50;99.90;;;;;;5079556;28;20192;-92
2022/09/30 08:15:49;;;;;;;5.60;5.10;;;20.90;99.90;;;;;;5077212;28;20953;-86
2022/09/30 08:18:15;;;;;;;5.57;5.00;;;21.30;99.90;;;;;;5077517;28;20256;-87
2022/09/30 08:20:40;;;;;;;3.90;3.00;;;21.70;99.90;;;;;;5059547;28;20637;-86
2022/09/30 08:23:06;;;;;;;3.67;2.50;;;22.40;99.90;;;;;;5077238;28;20197;-87
2022/09/30 08:25:31;;;;;;;3.33;3.03;;;22.20;99.90;;;;;;5077051;28;20626;-88
2022/09/30 08:27:57;;;;;;;3.87;3.60;;;22.50;99.90;;;;;;5076972;28;20173;-89
2022/09/30 08:30:22;;;;;;;5.07;2.37;;;22.70;99.90;;;;;;5077062;28;20165;-89
2022/09/30 08:32:48;;;;;;;6.53;2.67;;;23.70;99.90;;;;;;5058923;28;20173;-90
2022/09/30 08:35:13;;;;;;;3.00;2.00;;;23.90;99.90;;;;;;5077530;28;20186;-90
2022/09/30 08:37:39;;;;;;;2.87;2.23;;;23.40;99.90;;;;;;5077479;28;20199;-93
2022/09/30 08:40:05;;;;;;;2.17;1.83;;;23.60;99.90;;;;;;5077187;28;20176;-91
2022/09/30 08:43:04;;;;;;;8.80;2.80;;;23.50;99.40;;;;;;5076850;28;20192;-91
2022/09/30 08:45:40;;;;;;;5.70;1.80;;;24.10;97.80;;;;;;5078490;28;20467;-91
2022/09/30 08:48:21;;;;;;;2.37;1.77;;;23.60;81.20;;;;;;5078271;28;20418;-90
2022/09/30 08:51:00;;;;;;;3.00;2.50;;;23.30;72.60;;;;;;5079666;28;20422;-87
2022/09/30 08:53:30;;;;;;;5.17;4.97;;;23.20;73.50;;;;;;5076805;28;20903;-89
2022/09/30 08:56:01;;;;;;;5.17;4.97;;;23.00;78.30;;;;;;5077782;28;20887;-89
2022/09/30 08:58:55;;;;;;;2.93;1.50;;;23.00;82.10;;;;;;5078436;28;20476;-92
2022/09/30 09:01:36;;;;;;;1.63;1.10;;;22.20;69.20;;;;;;5074670;28;20545;-91
2022/09/30 09:04:04;;;;;;;2.00;1.50;;;21.90;89.10;;;;;;5060825;28;20822;-93
2022/09/30 09:06:54;;;;;;;1.97;1.87;;;21.70;72.60;;;;;;5059605;28;20473;-91
2022/09/30 09:09:33;;;;;;;1.90;1.40;;;20.70;84.80;;;;;;5078219;28;20410;-89
2022/09/30 09:12:27;;;;;;;3.67;2.10;;;21.80;93.50;;;;;;5077064;28;20419;-90
2022/09/30 09:15:28;;;;;;;1.57;1.17;;;22.30;95.50;;;;;;5079686;28;20487;-89
2022/09/30 09:18:19;;;;;;;2.10;1.20;;;22.80;94.50;;;;;;5060919;28;20419;-90
2022/09/30 09:21:08;;;;;;;1.67;1.20;;;;;;;;;;5077455;28;20411;-91
2022/09/30 09:23:34;;;;;;;2.27;1.00;;;22.70;57.50;;;;;;5076780;28;20419;-91
2022/09/30 09:26:00;;;;;;;1.40;0.97;;;21.00;73.40;;;;;;5079853;28;20470;-89
2022/09/30 09:28:56;;;;;;;2.17;0.73;;;22.40;87.90;;;;;;5078000;28;20454;-91
2022/09/30 09:31:23;;;;;;;2.23;0.90;;;22.00;56.20;;;;;;5076948;28;20253;-92
2022/09/30 09:33:49;;;;;;;2.30;1.10;;;21.90;69.50;;;;;;5079955;28;20418;-93
2022/09/30 09:36:41;;;;;;;1.30;0.50;;;20.60;74.40;;;;;;5079323;28;20423;-90
2022/09/30 09:39:27;;;;;;;1.80;0.83;;;20.40;95.40;;;;;;5076130;28;20239;-89
2022/09/30 09:42:30;;;;;;;1.87;1.20;;;19.60;99.90;;;;;;5058025;28;20500;-90
2022/09/30 09:45:02;;;;;;;1.63;0.80;;;19.70;99.90;;;;;;5076076;28;20434;-92
2022/09/30 09:47:27;;;;;;;2.30;0.93;;;19.40;99.90;;;;;;5076818;28;20462;-90
2022/09/30 09:49:58;;;;;;;2.23;1.17;;;19.10;99.90;;;;;;5058264;28;20415;-91
2022/09/30 09:52:29;;;;;;;1.37;0.73;;;19.70;99.90;;;;;;5076767;28;20161;-91
2022/09/30 09:54:55;;;;;;;2.60;1.33;;;19.50;99.90;;;;;;5080728;28;20398;-91
2022/09/30 09:57:30;;;;;;;2.07;0.60;;;18.90;99.90;;;;;;5096941;28;20785;-91
2022/09/30 10:03:01;;;;;;;1.20;0.70;;;19.00;99.90;;;;;;5097319;28;20385;-90
2022/09/30 10:05:30;;;;;;;1.17;0.70;;;20.40;99.90;;;;;;5097538;28;20403;-92
2022/09/30 10:08:09;;;;;;;1.37;1.23;;;20.00;99.90;;;;;;5096211;28;20967;-89
2022/09/30 10:10:53;;;;;;;1.90;0.83;;;19.60;99.90;;;;;;5097817;28;20420;-89
2022/09/30 10:13:24;;;;;;;1.23;0.60;;;19.20;99.90;;;;;;5096526;28;20410;-89
2022/09/30 10:15:53;;;;;;;1.93;0.60;;;19.50;99.90;;;;;;5077614;28;20496;-92
2022/09/30 10:18:34;;;;;;;1.70;1.00;;;19.60;99.90;;;;;;5079219;28;20544;-90
2022/09/30 10:21:05;;;;;;;3.43;0.83;;;20.60;99.90;;;;;;5095508;28;20402;-90
2022/09/30 10:23:35;;;;;;;1.80;0.70;;;20.80;99.90;;;;;;5096025;28;20490;-92
2022/09/30 10:26:16;;;;;;;1.50;0.60;;;20.10;99.90;;;;;;5077697;28;20458;-91
2022/09/30 10:28:52;;;;;;;1.60;0.60;;;20.50;99.90;;;;;;5095778;28;20489;-91
2022/09/30 10:31:41;;;;;;;1.43;0.53;;;20.20;99.90;;;;;;5076966;28;20983;-90
2022/09/30 10:34:27;;;;;;;1.00;0.47;;;20.00;99.90;;;;;;5077664;28;20410;-91
2022/09/30 10:36:53;;;;;;;1.20;0.50;;;18.70;99.90;;;;;;5077625;28;20804;-91
2022/09/30 10:39:23;;;;;;;1.23;0.30;;;18.10;1.00;;;;;;5095136;28;20558;-87
2022/09/30 10:41:59;;;;;;;1.20;0.40;;;17.60;1.00;;;;;;5094978;28;20401;-91
2022/09/30 10:44:25;;;;;;;1.00;0.37;;;17.70;1.00;;;;;;5094890;28;20401;-87
2022/09/30 10:46:57;;;;;;;0.60;0.20;;;17.60;1.00;;;;;;5094992;28;20555;-91
2022/09/30 10:49:45;;;;;;;0.80;0.30;;;17.70;99.90;;;;;;5077561;28;20414;-92
2022/09/30 10:52:18;;;;;;;1.07;0.20;;;18.80;99.90;;;;;;5095418;28;20416;-91
2022/09/30 10:54:52;;;;;;;0.40;0.20;;;20.20;99.90;;;;;;5095169;28;20403;-92
2022/09/30 10:57:32;;;;;;;0.70;0.20;;;19.00;99.90;;;;;;5095256;28;20456;-89
2022/09/30 11:00:17;;;;;;;0.40;0.20;;;18.40;99.90;;;;;;5077206;28;20922;-93
2022/09/30 11:03:01;;;;;;;0.60;0.20;;;19.70;99.90;;;;;;5095310;28;20820;-92
2022/09/30 11:05:39;;;;;;;0.50;0.30;;;20.10;99.90;;;;;;5094790;28;20390;-92
2022/09/30 11:08:18;;;;;;;0.40;0.20;;;18.60;99.90;;;;;;5095639;28;20410;-91
2022/09/30 11:11:08;;;;;;;0.80;0.20;;;19.00;99.90;;;;;;5077034;28;20844;-90
2022/09/30 11:13:53;;;;;;;1.07;0.37;;;17.90;99.90;;;;;;5077494;28;20408;-91
2022/09/30 11:16:56;;;;;;;1.00;0.30;;;17.50;99.90;;;;;;5094722;28;20397;-91
2022/09/30 11:19:38;;;;;;;0.60;0.20;;;17.80;99.90;;;;;;5095358;28;20470;-91
2022/09/30 11:22:21;;;;;;;1.60;0.30;;;17.10;99.90;;;;;;5096454;28;20401;-90
2022/09/30 11:24:50;;;;;;;1.40;0.20;;;16.70;99.90;;;;;;5097641;28;20408;-91
2022/09/30 11:27:20;;;;;;;1.07;0.30;;;16.50;45.70;;;;;;5095813;28;20458;-91
2022/09/30 11:29:49;;;;;;;0.80;0.30;;;16.80;1.00;;;;;;5095200;28;20980;-90
2022/09/30 11:32:54;;;;;;;0.60;0.20;;;16.60;99.90;;;;;;5095904;28;20416;-91
2022/09/30 11:35:34;;;;;;;1.00;0.23;;;19.20;99.90;;;;;;5097865;28;20406;-92
2022/09/30 11:38:38;;;;;;;0.80;0.43;;;21.30;99.90;;;;;;5095299;28;20424;-90
2022/09/30 11:41:03;;;;;;;0.73;0.30;;;18.50;99.90;;;;;;5094637;28;20416;-89
2022/09/30 11:43:54;;;;;;;0.80;0.27;;;18.40;99.90;;;;;;5094890;28;20889;-92
2022/09/30 11:46:38;;;;;;;1.60;0.40;;;19.80;99.90;;;;;;5094146;28;20536;-90
2022/09/30 11:49:31;;;;;;;0.73;0.30;;;19.20;99.90;;;;;;5097238;28;20394;-92
2022/09/30 11:52:21;;;;;;;0.77;0.30;;;19.20;99.90;;;;;;5094405;28;20468;-89
2022/09/30 11:55:27;;;;;;;0.70;0.50;;;21.50;99.90;;;;;;5094079;28;20405;-90
2022/09/30 11:58:04;;;;;;;1.23;0.40;;;19.40;99.90;;;;;;5093694;28;20406;-89
2022/09/30 12:00:32;;;;;;;1.80;0.60;;;21.20;99.90;;;;;;5075506;28;20454;-89
2022/09/30 12:03:04;;;;;;;1.30;0.57;;;22.00;89.20;;;;;;5094217;28;20411;-89
2022/09/30 12:05:38;;;;;;;2.40;0.83;;;22.50;68.20;;;;;;5094175;28;20887;-90
2022/09/30 12:08:18;;;;;;;2.70;0.83;;;22.80;58.40;;;;;;5093903;28;20787;-91
2022/09/30 12:10:53;;;;;;;1.60;1.20;;;21.40;53.90;;;;;;5094603;28;20410;-90
2022/09/30 12:13:30;;;;;;;2.20;1.30;;;19.80;94.10;;;;;;5093838;28;20417;-85
2022/09/30 12:15:57;;;;;;;2.30;1.47;;;19.70;99.90;;;;;;5093325;28;20398;-87
2022/09/30 12:18:36;;;;;;;2.90;1.00;;;19.40;99.90;;;;;;5093509;28;20459;-82
2022/09/30 12:21:25;;;;;;;1.67;0.90;;;19.50;99.90;;;;;;5093994;28;20414;-91
2022/09/30 12:24:18;;;;;;;3.50;1.23;;;20.40;97.50;;;;;;5045926;28;20909;-87
2022/09/30 12:26:46;;;;;;;1.73;1.40;;;21.20;81.50;;;;;;5097679;28;20545;-90
2022/09/30 12:32:41;;;;;;;3.63;0.80;;;21.00;63.00;;;;;;5097576;28;20386;-89
2022/09/30 12:35:32;;;;;;;1.50;0.57;;;21.70;58.80;;;;;;5098203;28;20502;-90
2022/09/30 12:38:24;;;;;;;1.40;0.97;;;22.00;40.90;;;;;;5097265;28;20887;-91
2022/09/30 12:41:01;;;;;;;1.97;1.23;;;21.60;51.30;;;;;;5097916;28;20410;-91
2022/09/30 12:43:58;;;;;;;3.40;1.00;;;20.30;78.40;;;;;;5097386;28;20414;-85
2022/09/30 12:46:44;;;;;;;1.43;0.87;;;20.90;72.20;;;;;;5079730;28;20462;-92
2022/09/30 12:49:13;;;;;;;1.67;1.27;;;20.70;65.40;;;;;;5097533;28;20398;-87
2022/09/30 12:51:42;;;;;;;2.43;1.17;;;20.60;45.50;;;;;;5097297;28;20418;-90
2022/09/30 12:54:25;;;;;;;2.37;1.10;;;20.40;50.10;;;;;;5097699;28;20522;-90
2022/09/30 12:56:59;;;;;;;2.30;1.03;;;20.20;51.70;;;;;;5097177;28;20410;-86
2022/09/30 12:59:29;;;;;;;1.83;1.07;;;20.00;75.10;;;;;;5078595;28;20413;-90
2022/09/30 13:01:56;;;;;;;1.53;0.70;;;19.90;65.80;;;;;;5097408;28;20413;-91
2022/09/30 13:04:41;;;;;;;2.97;1.27;;;19.80;51.20;;;;;;5096637;28;20413;-88
2022/09/30 13:07:10;;;;;;;1.40;0.60;;;19.70;62.60;;;;;;5096948;28;20501;-89
2022/09/30 13:09:54;;;;;;;1.23;0.80;;;19.60;72.40;;;;;;5096520;28;20399;-84
2022/09/30 13:12:38;;;;;;;2.60;0.90;;;19.70;66.10;;;;;;5096951;28;20402;-90
2022/09/30 13:15:37;;;;;;;2.70;0.93;;;19.50;52.20;;;;;;5078459;28;20507;-82
2022/09/30 13:18:25;;;;;;;2.00;0.60;;;19.20;44.50;;;;;;5096196;28;20403;-85
2022/09/30 13:21:03;;;;;;;1.13;0.70;;;19.20;48.70;;;;;;5096431;28;20909;-86
2022/09/30 13:24:04;;;;;;;1.70;0.53;;;19.20;64.00;;;;;;5096256;28;20413;-87
2022/09/30 13:26:35;;;;;;;2.33;1.00;;;18.80;57.70;;;;;;5092090;28;20974;-83
2022/09/30 13:29:00;;;;;;;3.80;1.37;;;18.20;64.60;;;;;;5091796;28;20460;-85
2022/09/30 13:31:28;;;;;;;1.60;0.70;;;17.70;92.70;;;;;;5075748;28;20439;-86
2022/09/30 13:34:00;;;;;;;1.57;0.80;;;17.60;99.90;;;;;;5081620;28;20654;-81